Time;durP1;ratioP1;P1;durP2;ratioP2;P2;SDS_P1;SDS_P2;PMS_P1;PMS_P2;Temp;Humidity;BMP_temperature;BMP_pressure;BME280_temperature;BME280_humidity;BME280_pressure;Samples;Min_cycle;Max_cycle;Signal;HPM_P1;HPM_P2
2022/03/29 00:00:58;;;;;;;77.45;31.27;;;;;;;-149.78;100.00;50303.25;5057007;28;20032;-72
2022/03/29 00:03:23;;;;;;;71.78;31.48;;;;;;;-149.78;100.00;50322.81;5073785;28;20036;-72
2022/03/29 00:05:49;;;;;;;74.57;30.65;;;;;;;-149.78;100.00;50299.34;5074837;28;20085;-71
2022/03/29 00:08:14;;;;;;;76.60;30.63;;;;;;;-149.78;100.00;50275.88;5073569;28;20044;-72
2022/03/29 00:10:41;;;;;;;70.78;29.15;;;;;;;-149.78;100.00;50307.16;5074908;28;20044;-72
2022/03/29 00:13:09;;;;;;;79.82;31.73;;;;;;;-149.78;100.00;50287.59;5074474;28;20040;-72
2022/03/29 00:15:35;;;;;;;72.10;31.30;;;;;;;-149.78;100.00;50293.47;5085113;28;20032;-72
2022/03/29 00:18:00;;;;;;;76.00;30.33;;;;;;;-149.78;100.00;50330.63;5093662;28;20093;-72
2022/03/29 00:20:26;;;;;;;74.35;30.35;;;;;;;-149.78;100.00;50291.50;5060125;28;20043;-72
2022/03/29 00:22:52;;;;;;;69.53;28.55;;;;;;;-149.78;100.00;50313.03;5076870;28;20499;-72
2022/03/29 00:25:18;;;;;;;73.47;30.80;;;;;;;-149.78;100.00;50291.50;5093528;28;20039;-72
2022/03/29 00:27:44;;;;;;;79.53;33.42;;;;;;;-149.78;100.00;50264.13;5094801;28;20096;-72
2022/03/29 00:30:15;;;;;;;81.50;32.58;;;;;;;-149.78;100.00;50277.81;5093076;28;20047;-72
2022/03/29 00:32:45;;;;;;;84.20;33.00;;;;;;;-149.78;100.00;50281.75;5094490;28;20040;-72
2022/03/29 00:35:11;;;;;;;76.13;31.45;;;;;;;-149.78;100.00;50283.69;5094346;28;20035;-72
2022/03/29 00:37:38;;;;;;;73.95;31.63;;;;;;;-149.78;100.00;50330.63;5094401;28;20024;-72
2022/03/29 00:40:05;;;;;;;76.57;32.38;;;;;;;-149.78;100.00;50283.69;5094362;28;20121;-72
2022/03/29 00:42:34;;;;;;;78.38;32.97;;;;;;;-149.78;100.00;50326.72;5076764;28;20031;-72
2022/03/29 00:45:00;;;;;;;72.45;32.15;;;;;;;-149.78;100.00;50271.97;5084377;28;20063;-72
2022/03/29 00:47:26;;;;;;;79.43;34.30;;;;;;;-149.78;100.00;50307.16;5073758;28;20071;-72
2022/03/29 00:49:51;;;;;;;80.60;32.42;;;;;;;-149.78;100.00;50305.22;5073689;28;20044;-72
2022/03/29 00:52:17;;;;;;;75.40;33.60;;;;;;;-149.78;100.00;50299.34;5072472;28;20040;-72
2022/03/29 00:54:43;;;;;;;68.47;31.35;;;;;;;-149.78;100.00;50295.44;5073391;28;20083;-72
2022/03/29 00:57:11;;;;;;;74.28;30.27;;;;;;;-149.78;100.00;50305.22;5072296;28;20174;-72
2022/03/29 00:59:46;;;;;;;69.72;31.13;;;;;;;-149.78;100.00;50307.16;5072437;28;20135;-72
2022/03/29 01:02:13;;;;;;;75.70;31.00;;;;;;;-149.78;100.00;50287.59;5073501;28;20032;-72
2022/03/29 01:04:39;;;;;;;69.82;29.95;;;;;;;-149.78;100.00;50295.44;5039497;28;20044;-72
2022/03/29 01:07:05;;;;;;;70.15;30.77;;;;;;;-149.78;100.00;50256.31;5072361;28;20032;-72
2022/03/29 01:09:32;;;;;;;71.25;30.33;;;;;;;-149.78;100.00;50293.47;5055631;28;20412;-71
2022/03/29 01:11:58;;;;;;;62.78;28.40;;;;;;;-149.78;100.00;50291.50;5055679;28;20032;-72
2022/03/29 01:14:26;;;;;;;63.38;27.90;;;;;;;-149.78;100.00;50322.81;5088447;28;20040;-72
2022/03/29 01:19:38;;;;;;;65.45;28.27;;;;;;;-149.78;100.00;50299.34;5082428;28;20024;-72
2022/03/29 01:22:07;;;;;;;65.75;29.17;;;;;;;-149.78;100.00;50307.16;5072905;28;20033;-72
2022/03/29 01:24:35;;;;;;;62.42;27.88;;;;;;;-149.78;100.00;50299.34;5073400;28;20111;-72
2022/03/29 01:27:04;;;;;;;57.33;27.48;;;;;;;-149.78;100.00;50305.22;5073214;28;20056;-72
2022/03/29 01:29:31;;;;;;;63.83;28.08;;;;;;;-149.78;100.00;50291.50;5073128;28;20127;-72
2022/03/29 01:31:57;;;;;;;66.53;28.60;;;;;;;-149.78;100.00;50295.44;5072843;28;20140;-72
2022/03/29 01:34:23;;;;;;;64.35;28.17;;;;;;;-149.78;100.00;50311.06;5073343;28;20041;-72
2022/03/29 01:36:49;;;;;;;61.47;28.17;;;;;;;-149.78;100.00;50287.59;5071811;28;20047;-72
2022/03/29 01:39:16;;;;;;;59.65;27.88;;;;;;;-149.78;100.00;50270.00;5055389;28;20361;-72
2022/03/29 01:41:42;;;;;;;67.97;29.85;;;;;;;-149.78;100.00;50322.81;5071872;28;20033;-72
2022/03/29 01:44:09;;;;;;;65.53;29.70;;;;;;;-149.78;100.00;50309.13;5072650;28;20102;-72
2022/03/29 01:46:36;;;;;;;59.08;27.75;;;;;;;-149.78;100.00;50328.69;5071798;28;20073;-72
2022/03/29 01:49:03;;;;;;;60.42;28.33;;;;;;;-149.78;100.00;50303.25;5071529;28;20040;-72
2022/03/29 01:51:28;;;;;;;62.40;29.55;;;;;;;-149.78;100.00;50314.97;5072560;28;20124;-72
2022/03/29 01:53:55;;;;;;;66.18;29.88;;;;;;;-149.78;100.00;50285.66;5055346;28;20119;-72
2022/03/29 01:56:22;;;;;;;63.00;29.15;;;;;;;-149.78;100.00;50336.50;5072459;28;20045;-72
2022/03/29 01:58:47;;;;;;;64.78;28.50;;;;;;;-149.78;100.00;50299.34;5070489;28;20060;-72
2022/03/29 02:01:42;;;;;;;57.50;27.33;;;;;;;-149.78;100.00;50287.59;5073910;28;20032;-72
2022/03/29 02:04:09;;;;;;;61.03;27.52;;;;;;;-149.78;100.00;50291.50;5076909;28;20034;-72
2022/03/29 02:09:19;;;;;;;62.58;27.30;;;;;;;-149.78;100.00;50322.81;5092689;28;20028;-72
2022/03/29 02:12:03;;;;;;;62.83;28.25;;;;;;;-149.78;100.00;50287.59;5091519;28;20475;-72
2022/03/29 02:14:29;;;;;;;66.38;29.27;;;;;;;-149.78;100.00;50334.53;5092457;28;20036;-72
2022/03/29 02:17:14;;;;;;;69.55;30.65;;;;;;;-149.78;100.00;50314.97;5087180;28;20097;-72
2022/03/29 02:19:39;;;;;;;63.78;28.58;;;;;;;-149.78;100.00;50299.34;5072287;28;20028;-72
2022/03/29 02:22:24;;;;;;;64.15;28.55;;;;;;;-149.78;100.00;50311.06;5071113;28;20028;-72
2022/03/29 02:24:49;;;;;;;58.72;28.00;;;;;;;-149.78;100.00;50297.38;5057042;28;20045;-73
2022/03/29 02:27:34;;;;;;;64.22;29.20;;;;;;;-149.78;100.00;50361.91;5087184;28;20055;-72
2022/03/29 02:29:59;;;;;;;57.50;27.38;;;;;;;-149.78;100.00;50342.38;5091950;28;20396;-72
2022/03/29 02:35:47;;;;;;;68.65;29.83;;;;;;;-149.78;100.00;50354.09;5074583;28;20036;-72
2022/03/29 02:40:58;;;;;;;64.65;29.85;;;;;;;-149.78;100.00;50354.09;5081748;28;20032;-72
2022/03/29 02:43:43;;;;;;;72.60;31.23;;;;;;;-149.78;100.00;50303.25;5092432;28;20583;-72
2022/03/29 02:46:09;;;;;;;90.93;33.83;;;;;;;-149.78;100.00;50330.63;5092389;28;20379;-72
2022/03/29 02:48:35;;;;;;;88.95;34.75;;;;;;;-149.78;100.00;50309.13;5091106;28;20047;-72
2022/03/29 02:51:01;;;;;;;96.72;36.58;;;;;;;-149.78;100.00;50295.44;5090925;28;20055;-72
2022/03/29 02:53:45;;;;;;;105.85;37.75;;;;;;;-149.78;100.00;50311.06;5092170;28;20454;-72
2022/03/29 02:56:11;;;;;;;99.63;37.20;;;;;;;-149.78;100.00;50301.28;5092281;28;20065;-71
2022/03/29 03:01:39;;;;;;;108.68;39.75;;;;;;;-149.78;100.00;50295.44;5092252;28;20404;-72
2022/03/29 03:04:23;;;;;;;129.38;40.15;;;;;;;-149.78;100.00;50291.50;5087285;28;20021;-72
2022/03/29 03:07:08;;;;;;;126.32;41.10;;;;;;;-149.78;100.00;50303.25;5089722;28;20086;-72
2022/03/29 03:12:38;;;;;;;114.85;39.78;;;;;;;-149.78;100.00;50326.72;5087509;28;20032;-72
2022/03/29 03:15:06;;;;;;;113.28;38.22;;;;;;;-149.78;100.00;50275.88;5053507;28;20471;-72
2022/03/29 03:17:32;;;;;;;128.32;40.40;;;;;;;-149.78;100.00;50293.47;5070381;28;20095;-71
2022/03/29 03:22:42;;;;;;;123.03;40.40;;;;;;;-149.78;100.00;50313.03;5070929;28;20116;-72
2022/03/29 03:25:10;;;;;;;140.15;45.03;;;;;;;-149.78;100.00;50291.50;5071308;28;20467;-72
2022/03/29 03:27:40;;;;;;;128.30;44.90;;;;;;;-149.78;100.00;50291.50;5070126;28;20440;-72
2022/03/29 03:30:25;;;;;;;133.38;43.00;;;;;;;-149.78;100.00;50311.06;5071403;28;20053;-72
2022/03/29 03:32:53;;;;;;;127.75;43.78;;;;;;;-149.78;100.00;50358.00;5053518;28;20071;-72
2022/03/29 03:35:38;;;;;;;131.80;44.47;;;;;;;-149.78;100.00;50330.63;5070404;28;20074;-72
2022/03/29 03:38:23;;;;;;;147.23;44.40;;;;;;;-149.78;100.00;50326.72;5071538;28;20029;-72
2022/03/29 03:40:48;;;;;;;135.25;44.17;;;;;;;-149.78;100.00;50293.47;5081802;28;20038;-72
2022/03/29 03:43:14;;;;;;;151.20;45.30;;;;;;;-149.78;100.00;50313.03;5090390;28;20119;-71
2022/03/29 03:45:39;;;;;;;145.35;45.22;;;;;;;-149.78;100.00;50307.16;5090357;28;20032;-72
2022/03/29 03:48:05;;;;;;;149.15;46.97;;;;;;;-149.78;100.00;50346.28;5073578;28;20070;-72
2022/03/29 03:50:33;;;;;;;147.88;47.33;;;;;;;-149.78;100.00;50340.41;5090351;28;20032;-72
2022/03/29 03:53:18;;;;;;;141.27;46.45;;;;;;;-149.78;100.00;50314.97;5073339;28;20040;-72
2022/03/29 03:55:43;;;;;;;136.32;45.70;;;;;;;-149.78;100.00;50299.34;5091472;28;20077;-72
2022/03/29 03:58:09;;;;;;;136.85;43.92;;;;;;;-149.78;100.00;50287.59;5091416;28;20071;-72
2022/03/29 04:00:53;;;;;;;139.88;44.20;;;;;;;-149.78;100.00;50297.38;5090102;28;20043;-73
2022/03/29 04:03:19;;;;;;;127.30;44.85;;;;;;;-149.78;100.00;50307.16;5091447;28;20028;-72
2022/03/29 04:05:44;;;;;;;128.70;42.35;;;;;;;-149.78;100.00;50301.28;5091453;28;20105;-72
2022/03/29 04:08:10;;;;;;;126.88;42.25;;;;;;;-149.78;100.00;50295.44;5090075;28;20063;-72
2022/03/29 04:10:59;;;;;;;147.95;45.78;;;;;;;-149.78;100.00;50314.97;5074006;28;20051;-72
2022/03/29 04:13:24;;;;;;;145.50;43.70;;;;;;;-149.78;100.00;50307.16;5078157;28;20476;-72
2022/03/29 04:15:50;;;;;;;146.40;48.03;;;;;;;-149.78;100.00;50301.28;5071217;28;20700;-71
2022/03/29 04:21:19;;;;;;;141.40;44.95;;;;;;;-149.78;100.00;50295.44;5074743;28;20588;-72
2022/03/29 04:24:03;;;;;;;142.57;46.25;;;;;;;-149.78;100.00;50330.63;5073578;28;20060;-72
2022/03/29 04:29:14;;;;;;;131.18;45.95;;;;;;;-149.78;100.00;50297.38;5073246;28;20059;-72
2022/03/29 04:31:40;;;;;;;122.50;45.10;;;;;;;-149.78;100.00;50295.44;5080786;28;20028;-72
2022/03/29 04:34:06;;;;;;;125.07;46.85;;;;;;;-149.78;100.00;50295.44;5093545;28;20043;-72
2022/03/29 04:36:32;;;;;;;132.57;45.30;;;;;;;-149.78;100.00;50326.72;5094482;28;20028;-72
2022/03/29 04:38:58;;;;;;;134.82;46.38;;;;;;;-149.78;100.00;50334.53;5093037;28;20360;-72
2022/03/29 04:44:09;;;;;;;135.80;44.67;;;;;;;-149.78;100.00;50318.91;5094047;28;20039;-72
2022/03/29 04:46:34;;;;;;;125.97;44.70;;;;;;;-149.78;100.00;50350.19;5092961;28;20127;-72
2022/03/29 04:49:00;;;;;;;129.68;42.67;;;;;;;-149.78;100.00;50318.91;5093069;28;20032;-72
2022/03/29 04:51:26;;;;;;;122.63;42.05;;;;;;;-149.78;100.00;50311.06;5093073;28;20387;-72
2022/03/29 04:53:52;;;;;;;123.30;42.88;;;;;;;-149.78;100.00;50338.44;5094137;28;20093;-72
2022/03/29 04:56:18;;;;;;;133.00;43.00;;;;;;;-149.78;100.00;50291.50;5092068;28;20043;-72
2022/03/29 04:58:43;;;;;;;130.05;42.33;;;;;;;-149.78;100.00;50322.81;5072666;28;20044;-72
2022/03/29 05:01:09;;;;;;;131.65;41.60;;;;;;;-149.78;100.00;50279.78;5074032;28;20037;-73
2022/03/29 05:03:34;;;;;;;120.05;41.60;;;;;;;-149.78;100.00;50336.50;5072701;28;20032;-72
2022/03/29 05:06:00;;;;;;;127.95;42.72;;;;;;;-149.78;100.00;50328.69;5072563;28;20036;-72
2022/03/29 05:08:26;;;;;;;123.47;41.80;;;;;;;-149.78;100.00;50293.47;5072607;28;20043;-72
2022/03/29 05:10:52;;;;;;;123.90;42.97;;;;;;;-149.78;100.00;50326.72;5075171;28;20094;-72
2022/03/29 05:13:17;;;;;;;131.38;42.22;;;;;;;-149.78;100.00;50330.63;5066467;28;20040;-72
2022/03/29 05:15:44;;;;;;;112.38;40.15;;;;;;;-149.78;100.00;50299.34;5082315;28;20043;-72
2022/03/29 05:18:10;;;;;;;132.80;44.33;;;;;;;-149.78;100.00;50299.34;5077372;28;20039;-71
2022/03/29 05:20:36;;;;;;;128.85;42.92;;;;;;;-149.78;100.00;50318.91;5077036;28;20024;-72
2022/03/29 05:23:06;;;;;;;124.20;41.85;;;;;;;-149.78;100.00;50330.63;5077541;28;20479;-71
2022/03/29 05:25:32;;;;;;;113.88;38.42;;;;;;;-149.78;100.00;50359.97;5071516;28;20027;-69
2022/03/29 05:27:58;;;;;;;118.63;41.45;;;;;;;-149.78;100.00;50318.91;5075442;28;20040;-70
2022/03/29 05:30:24;;;;;;;119.97;40.95;;;;;;;-149.78;100.00;50311.06;5072521;28;20045;-70
2022/03/29 05:32:51;;;;;;;118.10;42.33;;;;;;;-149.78;100.00;50324.75;5072836;28;20120;-70
2022/03/29 05:35:17;;;;;;;131.85;42.50;;;;;;;-149.78;100.00;50332.59;5073188;28;20032;-71
2022/03/29 05:37:43;;;;;;;128.25;43.22;;;;;;;-149.78;100.00;50314.97;5073324;28;20574;-71
2022/03/29 05:40:11;;;;;;;120.10;40.65;;;;;;;-149.78;100.00;50314.97;5073194;28;20143;-70
2022/03/29 05:42:42;;;;;;;126.78;42.78;;;;;;;-149.78;100.00;50328.69;5072018;28;20033;-71
2022/03/29 05:45:10;;;;;;;122.20;39.67;;;;;;;-149.78;100.00;50299.34;5073120;28;20120;-71
2022/03/29 05:50:22;;;;;;;131.85;42.13;;;;;;;-149.78;100.00;50365.84;5072909;28;20060;-71
2022/03/29 05:52:47;;;;;;;138.77;44.58;;;;;;;-149.78;100.00;50334.53;5075755;28;20067;-71
2022/03/29 05:55:13;;;;;;;124.30;39.17;;;;;;;-149.78;100.00;50291.50;5066822;28;20054;-70
2022/03/29 05:57:39;;;;;;;143.00;42.97;;;;;;;-149.78;100.00;50348.22;5053740;28;20039;-70
2022/03/29 06:00:08;;;;;;;139.60;41.90;;;;;;;-149.78;100.00;50338.44;5088042;28;20035;-71
2022/03/29 06:02:34;;;;;;;132.05;41.90;;;;;;;-149.78;100.00;50334.53;5082824;28;20064;-71
2022/03/29 06:05:00;;;;;;;135.93;42.00;;;;;;;-149.78;100.00;50369.75;5083945;28;20032;-70
2022/03/29 06:07:26;;;;;;;139.80;39.72;;;;;;;-149.78;100.00;50314.97;5056985;28;20480;-71
2022/03/29 06:09:52;;;;;;;137.73;40.17;;;;;;;-149.78;100.00;50320.84;5074133;28;20043;-70
2022/03/29 06:12:22;;;;;;;138.38;40.05;;;;;;;-149.78;100.00;50334.53;5076919;28;20124;-70
2022/03/29 06:14:49;;;;;;;139.02;38.17;;;;;;;-149.78;100.00;50326.72;5076606;28;20090;-70
2022/03/29 06:17:15;;;;;;;120.60;38.55;;;;;;;-149.78;100.00;50318.91;5071307;28;20067;-70
2022/03/29 06:19:42;;;;;;;145.45;43.40;;;;;;;-149.78;100.00;50309.13;5070710;28;20036;-70
2022/03/29 06:22:08;;;;;;;129.05;42.47;;;;;;;-149.78;100.00;50354.09;5071125;28;20082;-71
2022/03/29 06:24:33;;;;;;;142.63;41.33;;;;;;;-149.78;100.00;50320.84;5072416;28;20044;-71
2022/03/29 06:26:59;;;;;;;152.77;43.28;;;;;;;-149.78;100.00;50311.06;5072303;28;20028;-70
2022/03/29 06:29:25;;;;;;;148.85;46.17;;;;;;;-149.78;100.00;50303.25;5070748;28;20055;-69
2022/03/29 06:31:51;;;;;;;149.48;46.45;;;;;;;-149.78;100.00;50342.38;5070240;28;20047;-70
2022/03/29 06:34:20;;;;;;;167.63;47.90;;;;;;;-149.78;100.00;50330.63;5070919;28;20043;-69
2022/03/29 06:36:46;;;;;;;149.20;45.13;;;;;;;-149.78;100.00;50346.28;5071850;28;20044;-70
2022/03/29 06:39:13;;;;;;;167.45;44.53;;;;;;;-149.78;100.00;50354.09;5072235;28;20040;-70
2022/03/29 06:41:40;;;;;;;173.23;47.25;;;;;;;-149.78;100.00;50338.44;5071791;28;20119;-71
2022/03/29 06:44:08;;;;;;;182.65;48.10;;;;;;;-149.78;100.00;50295.44;5074558;28;20090;-71
2022/03/29 06:46:39;;;;;;;163.93;44.65;;;;;;;-149.78;100.00;50332.59;5074525;28;20028;-70
2022/03/29 06:49:06;;;;;;;191.15;48.60;;;;;;;-149.78;100.00;50354.09;5077245;28;20028;-70
2022/03/29 06:51:33;;;;;;;181.20;47.53;;;;;;;-149.78;100.00;50358.00;5082524;28;20028;-70
2022/03/29 06:54:00;;;;;;;180.02;45.70;;;;;;;-149.78;100.00;50358.00;5080606;28;20031;-70
2022/03/29 06:56:26;;;;;;;195.23;51.70;;;;;;;-149.78;100.00;50363.88;5072766;28;20032;-69
2022/03/29 06:58:52;;;;;;;188.10;50.70;;;;;;;-149.78;100.00;50318.91;5081797;28;20028;-70
2022/03/29 07:01:18;;;;;;;201.63;57.45;;;;;;;-149.78;100.00;50313.03;5076568;28;20028;-70
2022/03/29 07:03:43;;;;;;;190.18;49.85;;;;;;;-149.78;100.00;50320.84;5087700;28;20040;-70
2022/03/29 07:06:09;;;;;;;194.63;54.17;;;;;;;-149.78;100.00;50303.25;5072314;28;20037;-70
2022/03/29 07:08:36;;;;;;;191.93;50.60;;;;;;;-149.78;100.00;50338.44;5078402;28;20063;-69
2022/03/29 07:11:19;;;;;;;183.35;50.45;;;;;;;-149.78;100.00;50326.72;5073969;28;20035;-70
2022/03/29 07:13:45;;;;;;;204.55;52.22;;;;;;;-149.78;100.00;50354.09;5082566;28;20085;-68
2022/03/29 07:16:14;;;;;;;197.55;53.83;;;;;;;-149.78;100.00;50322.81;5078213;28;20527;-70
2022/03/29 07:18:41;;;;;;;187.57;50.67;;;;;;;-149.78;100.00;50338.44;5089763;28;20024;-71
2022/03/29 07:21:07;;;;;;;181.20;47.85;;;;;;;-149.78;100.00;50318.91;5084830;28;20044;-70
2022/03/29 07:23:33;;;;;;;180.23;50.40;;;;;;;-149.78;100.00;50322.81;5076405;28;20105;-69
2022/03/29 07:25:58;;;;;;;159.35;46.63;;;;;;;-149.78;100.00;50354.09;5082077;28;20447;-69
2022/03/29 07:28:24;;;;;;;182.25;48.92;;;;;;;-149.78;100.00;50324.75;5061673;28;20422;-69
2022/03/29 07:30:51;;;;;;;149.63;46.00;;;;;;;-149.78;100.00;50358.00;5076303;28;20071;-68
2022/03/29 07:33:18;;;;;;;156.80;46.80;;;;;;;-149.78;100.00;50356.06;5072211;28;20166;-70
2022/03/29 07:35:44;;;;;;;158.50;47.67;;;;;;;-149.78;100.00;50369.75;5068000;28;20059;-70
2022/03/29 07:38:11;;;;;;;168.30;46.45;;;;;;;-149.78;100.00;50326.72;5067615;28;20119;-70
2022/03/29 07:40:39;;;;;;;179.93;48.83;;;;;;;-149.78;100.00;50324.75;5070961;28;20025;-70
2022/03/29 07:43:06;;;;;;;161.10;45.30;;;;;;;-149.78;100.00;50361.91;5071102;28;20387;-70
2022/03/29 07:45:32;;;;;;;159.95;44.10;;;;;;;-149.78;100.00;50322.81;5071019;28;20120;-69
2022/03/29 07:47:58;;;;;;;186.93;47.90;;;;;;;-149.78;100.00;50358.00;5052988;28;20124;-70
2022/03/29 07:50:26;;;;;;;178.25;47.17;;;;;;;-149.78;100.00;50322.81;5071423;28;20107;-69
2022/03/29 07:52:53;;;;;;;192.57;50.53;;;;;;;-149.78;100.00;50305.22;5087520;28;20092;-70
2022/03/29 07:55:19;;;;;;;192.65;49.75;;;;;;;-149.78;100.00;50336.50;5084354;28;20033;-70
2022/03/29 07:57:45;;;;;;;184.30;47.95;;;;;;;-149.78;100.00;50311.06;5076927;28;20442;-69
2022/03/29 08:00:32;;;;;;;181.77;51.38;;;;;;;-149.78;100.00;50350.19;5075244;28;20040;-69
2022/03/29 08:03:17;;;;;;;191.40;46.90;;;;;;;-149.78;100.00;50303.25;5075003;28;20550;-69
2022/03/29 08:05:45;;;;;;;202.20;51.88;;;;;;;-149.78;100.00;50350.19;5074761;28;20024;-70
2022/03/29 08:08:13;;;;;;;200.70;49.42;;;;;;;-149.78;100.00;50291.50;5073584;28;20078;-70
2022/03/29 08:10:40;;;;;;;201.13;51.50;;;;;;;-149.78;100.00;50336.50;5076976;28;20043;-70
2022/03/29 08:13:07;;;;;;;205.48;53.20;;;;;;;-149.78;100.00;50342.38;5080490;28;20032;-70
2022/03/29 08:15:35;;;;;;;214.63;51.50;;;;;;;-149.78;100.00;50314.97;5086677;28;20035;-69
2022/03/29 08:18:00;;;;;;;204.32;52.03;;;;;;;-149.78;100.00;50289.56;5083351;28;20471;-70
2022/03/29 08:20:30;;;;;;;209.63;55.22;;;;;;;-149.78;100.00;50354.09;5079316;28;20580;-70
2022/03/29 08:23:00;;;;;;;220.23;53.50;;;;;;;-149.78;100.00;50332.59;5093570;28;20048;-70
2022/03/29 08:25:27;;;;;;;215.80;51.25;;;;;;;-149.78;100.00;50301.28;5085830;28;20040;-67
2022/03/29 08:27:55;;;;;;;207.73;52.03;;;;;;;-149.78;100.00;50346.28;5091527;28;20037;-67
2022/03/29 08:30:21;;;;;;;190.82;50.72;;;;;;;-149.78;100.00;50301.28;5077657;28;20055;-70
2022/03/29 08:32:47;;;;;;;180.85;47.17;;;;;;;-149.78;100.00;50299.34;5089740;28;20033;-70
2022/03/29 08:35:13;;;;;;;163.43;46.03;;;;;;;-149.78;100.00;50358.00;5079000;28;20427;-70
2022/03/29 08:37:40;;;;;;;155.45;45.55;;;;;;;-149.78;100.00;50295.44;5084939;28;20028;-70
2022/03/29 08:40:11;;;;;;;161.15;46.22;;;;;;;-149.78;100.00;50330.63;5091661;28;20479;-70
2022/03/29 08:42:37;;;;;;;159.32;46.72;;;;;;;-149.78;100.00;50342.38;5079912;28;20109;-69
2022/03/29 08:45:08;;;;;;;157.13;46.00;;;;;;;-149.78;100.00;50314.97;5094161;28;20071;-70
2022/03/29 08:47:34;;;;;;;141.70;42.83;;;;;;;-149.78;100.00;50365.84;5081731;28;20032;-70
2022/03/29 08:50:03;;;;;;;146.93;44.85;;;;;;;-149.78;100.00;50358.00;5087573;28;20036;-70
2022/03/29 08:52:29;;;;;;;136.68;43.67;;;;;;;-149.78;100.00;50344.31;5077082;28;20457;-70
2022/03/29 08:54:55;;;;;;;132.40;41.60;;;;;;;-149.78;100.00;50326.72;5070237;28;20123;-70
2022/03/29 08:57:20;;;;;;;144.27;43.85;;;;;;;-149.78;100.00;50346.28;5082370;28;20119;-70
2022/03/29 08:59:46;;;;;;;143.85;42.45;;;;;;;-149.78;100.00;50326.72;5088789;28;20123;-70
2022/03/29 09:02:15;;;;;;;142.52;42.38;;;;;;;-149.78;100.00;50346.28;5094126;28;20043;-70
2022/03/29 09:04:42;;;;;;;144.73;43.92;;;;;;;-149.78;100.00;50295.44;5085988;28;20032;-70
2022/03/29 09:07:07;;;;;;;143.15;46.05;;;;;;;-149.78;100.00;50326.72;5092881;28;20044;-70
2022/03/29 09:09:36;;;;;;;150.70;45.30;;;;;;;-149.78;100.00;50309.13;5081548;28;20070;-70
2022/03/29 09:12:18;;;;;;;131.95;43.30;;;;;;;-149.78;100.00;50322.81;5087416;28;20036;-69
2022/03/29 09:14:57;;;;;;;118.85;38.00;;;;;;;-149.78;100.00;50287.59;5075899;28;20421;-69
2022/03/29 09:17:40;;;;;;;126.18;38.08;;;;;;;-149.78;100.00;50326.72;5081423;28;20036;-70
2022/03/29 09:20:10;;;;;;;123.95;34.97;;;;;;;-149.78;100.00;50303.25;5078116;28;20047;-70
2022/03/29 09:22:46;;;;;;;109.03;33.15;;;;;;;-149.78;100.00;50314.97;5091699;28;20036;-70
2022/03/29 09:25:21;;;;;;;111.65;32.47;;;;;;;-149.78;100.00;50330.63;5073559;28;20108;-70
2022/03/29 09:27:58;;;;;;;116.40;32.10;;;;;;;-149.78;100.00;50346.28;5087930;28;20127;-70
2022/03/29 09:30:38;;;;;;;112.80;30.10;;;;;;;-149.78;100.00;50305.22;5073252;28;20051;-70
2022/03/29 09:33:12;;;;;;;98.25;30.13;;;;;;;-149.78;100.00;50311.06;5073306;28;20036;-70
2022/03/29 09:35:52;;;;;;;98.82;27.95;;;;;;;-149.78;100.00;50291.50;5080896;28;20089;-70
2022/03/29 09:38:45;;;;;;;103.93;27.92;;;;;;;-149.78;100.00;50322.81;5084985;28;20114;-70
2022/03/29 09:41:20;;;;;;;88.05;27.85;;;;;;;-149.78;100.00;50346.28;5085509;28;20046;-70
2022/03/29 09:43:58;;;;;;;104.35;30.13;;;;;;;-149.78;100.00;50346.28;5085326;28;20035;-70
2022/03/29 09:46:24;;;;;;;107.40;29.17;;;;;;;-149.78;100.00;50322.81;5084539;28;20032;-70
2022/03/29 09:48:50;;;;;;;116.28;31.00;;;;;;;-149.78;100.00;50371.69;5084859;28;20043;-70
2022/03/29 09:51:19;;;;;;;96.72;27.23;;;;;;;-149.78;100.00;50303.25;5083603;28;20055;-70
2022/03/29 09:53:51;;;;;;;95.90;28.80;;;;;;;-149.78;100.00;50314.97;5084280;28;20028;-70
2022/03/29 09:56:29;;;;;;;98.95;29.50;;;;;;;-149.78;100.00;50354.09;5080440;28;20036;-70
2022/03/29 09:59:03;;;;;;;110.97;32.88;;;;;;;-149.78;100.00;50303.25;5080793;28;20059;-70
2022/03/29 10:01:29;;;;;;;104.93;32.90;;;;;;;-149.78;100.00;50344.31;5083436;28;20039;-69
2022/03/29 10:03:56;;;;;;;95.45;27.92;;;;;;;-149.78;100.00;50318.91;5084001;28;20055;-68
2022/03/29 10:06:24;;;;;;;85.03;25.50;;;;;;;-149.78;100.00;50342.38;5083416;28;20039;-68
2022/03/29 10:11:38;;;;;;;77.85;24.67;;;;;;;-149.78;100.00;50330.63;5083045;28;20035;-68
2022/03/29 10:14:04;;;;;;;80.72;26.38;;;;;;;-149.78;100.00;50266.09;5082152;28;20395;-68
2022/03/29 10:16:31;;;;;;;74.72;23.55;;;;;;;-149.78;100.00;50358.00;5082462;28;20028;-68
2022/03/29 10:18:57;;;;;;;85.50;25.60;;;;;;;-149.78;100.00;50326.72;5064240;28;20090;-69
2022/03/29 10:21:23;;;;;;;76.20;24.65;;;;;;;-149.78;100.00;50346.28;5082953;28;20024;-69
2022/03/29 10:23:49;;;;;;;86.50;26.92;;;;;;;-149.78;100.00;50303.25;5081076;28;20518;-68
2022/03/29 10:26:17;;;;;;;81.93;26.17;;;;;;;-149.78;100.00;50334.53;5081039;28;20050;-69
2022/03/29 10:28:46;;;;;;;93.13;27.13;;;;;;;-149.78;100.00;50313.03;5081766;28;20068;-69
2022/03/29 10:31:28;;;;;;;89.68;26.75;;;;;;;-149.78;100.00;50287.59;5082366;28;20395;-69
2022/03/29 10:34:13;;;;;;;96.15;28.73;;;;;;;-149.78;100.00;50350.19;5082371;28;20169;-69
2022/03/29 10:37:03;;;;;;;88.07;26.67;;;;;;;-149.78;100.00;50314.97;5082772;28;20024;-69
2022/03/29 10:39:47;;;;;;;104.53;29.77;;;;;;;-149.78;100.00;50314.97;5082828;28;20063;-69
2022/03/29 10:42:38;;;;;;;99.30;29.13;;;;;;;-149.78;100.00;50326.72;5083074;28;20265;-69
2022/03/29 10:45:23;;;;;;;116.50;32.22;;;;;;;-149.78;100.00;50322.81;5082015;28;20088;-69
2022/03/29 10:48:01;;;;;;;96.32;29.20;;;;;;;-149.78;100.00;50289.56;5081663;28;20510;-68
2022/03/29 10:50:54;;;;;;;99.15;29.98;;;;;;;-149.78;100.00;50326.72;5082369;28;20115;-69
2022/03/29 10:53:32;;;;;;;107.22;30.13;;;;;;;-149.78;100.00;50320.84;5083137;28;20082;-69
2022/03/29 10:56:14;;;;;;;107.63;30.70;;;;;;;-149.78;100.00;50338.44;5082986;28;20036;-69
2022/03/29 10:59:04;;;;;;;104.22;31.02;;;;;;;-149.78;100.00;50275.88;5082340;28;20113;-69
2022/03/29 11:01:30;;;;;;;110.82;31.42;;;;;;;-149.78;100.00;50334.53;5077036;28;20035;-68
2022/03/29 11:04:10;;;;;;;111.05;32.90;;;;;;;-149.78;100.00;50330.63;5080391;28;20483;-69
2022/03/29 11:06:36;;;;;;;113.95;32.22;;;;;;;-149.78;100.00;50334.53;5078377;28;20471;-69
2022/03/29 11:09:07;;;;;;;130.13;37.53;;;;;;;-149.78;100.00;50314.97;5084874;28;20046;-70
2022/03/29 11:11:46;;;;;;;117.45;34.35;;;;;;;-149.78;100.00;50344.31;5091994;28;20036;-70
2022/03/29 11:14:28;;;;;;;116.88;33.50;;;;;;;-149.78;100.00;50322.81;5090683;28;20032;-69
2022/03/29 11:17:16;;;;;;;118.73;33.47;;;;;;;-149.78;100.00;50322.81;5091954;28;20047;-70
2022/03/29 11:19:48;;;;;;;117.47;32.15;;;;;;;-149.78;100.00;50338.44;5086219;28;20480;-70
2022/03/29 11:22:39;;;;;;;115.28;30.98;;;;;;;-149.78;100.00;50334.53;5071896;28;20064;-69
2022/03/29 11:25:12;;;;;;;103.13;30.67;;;;;;;-149.78;100.00;50313.03;5067901;28;20044;-69
2022/03/29 11:27:38;;;;;;;112.15;31.30;;;;;;;-149.78;100.00;50303.25;5071514;28;20041;-69
2022/03/29 11:30:07;;;;;;;112.95;31.58;;;;;;;-149.78;100.00;50342.38;5073753;28;20444;-69
2022/03/29 11:32:34;;;;;;;117.03;31.80;;;;;;;-149.78;100.00;50301.28;5077762;28;20028;-71
2022/03/29 11:35:02;;;;;;;109.30;31.27;;;;;;;-149.78;100.00;50322.81;5084571;28;20124;-69